sensor_id;sensor_type;location;lat;lon;timestamp;P1;durP1;ratioP1;P2;durP2;ratioP2
20170;SDS011;10245;51.344;6.620;2024-03-23T00:54:57;13.27;;;4.68;;
20170;SDS011;10245;51.344;6.620;2024-03-23T00:57:18;11.98;;;4.05;;
20170;SDS011;10245;51.344;6.620;2024-03-23T00:59:40;12.43;;;3.92;;
20170;SDS011;10245;51.344;6.620;2024-03-23T01:02:02;9.85;;;3.45;;
20170;SDS011;10245;51.344;6.620;2024-03-23T01:04:24;10.48;;;3.00;;
20170;SDS011;10245;51.344;6.620;2024-03-23T01:06:46;11.95;;;3.20;;
20170;SDS011;10245;51.344;6.620;2024-03-23T01:09:08;11.07;;;2.90;;
20170;SDS011;10245;51.344;6.620;2024-03-23T01:11:32;10.30;;;3.20;;
20170;SDS011;10245;51.344;6.620;2024-03-23T01:13:55;12.90;;;2.88;;
20170;SDS011;10245;51.344;6.620;2024-03-23T01:16:17;10.35;;;3.15;;
20170;SDS011;10245;51.344;6.620;2024-03-23T01:18:40;9.90;;;2.83;;
20170;SDS011;10245;51.344;6.620;2024-03-23T01:21:01;9.63;;;3.28;;
20170;SDS011;10245;51.344;6.620;2024-03-23T01:23:24;14.80;;;3.60;;
20170;SDS011;10245;51.344;6.620;2024-03-23T01:25:51;9.05;;;3.00;;
20170;SDS011;10245;51.344;6.620;2024-03-23T01:28:15;11.93;;;3.03;;
20170;SDS011;10245;51.344;6.620;2024-03-23T01:30:37;15.88;;;2.90;;
20170;SDS011;10245;51.344;6.620;2024-03-23T01:33:00;11.05;;;3.40;;
20170;SDS011;10245;51.344;6.620;2024-03-23T01:35:22;12.98;;;3.10;;
20170;SDS011;10245;51.344;6.620;2024-03-23T01:37:44;12.48;;;3.22;;
20170;SDS011;10245;51.344;6.620;2024-03-23T01:40:06;11.15;;;3.33;;
20170;SDS011;10245;51.344;6.620;2024-03-23T01:42:29;9.10;;;3.17;;
20170;SDS011;10245;51.344;6.620;2024-03-23T01:44:52;10.07;;;3.30;;
20170;SDS011;10245;51.344;6.620;2024-03-23T01:47:14;11.02;;;3.30;;
20170;SDS011;10245;51.344;6.620;2024-03-23T01:49:36;9.88;;;3.08;;
20170;SDS011;10245;51.344;6.620;2024-03-23T01:51:58;14.85;;;3.47;;
20170;SDS011;10245;51.344;6.620;2024-03-23T01:54:20;17.70;;;3.25;;
20170;SDS011;10245;51.344;6.620;2024-03-23T01:56:43;13.13;;;3.08;;
20170;SDS011;10245;51.344;6.620;2024-03-23T01:59:05;8.68;;;3.30;;
20170;SDS011;10245;51.344;6.620;2024-03-23T02:01:28;12.38;;;3.40;;
20170;SDS011;10245;51.344;6.620;2024-03-23T02:03:50;13.18;;;3.05;;
20170;SDS011;10245;51.344;6.620;2024-03-23T02:06:12;10.43;;;3.20;;
20170;SDS011;10245;51.344;6.620;2024-03-23T02:08:34;10.25;;;3.10;;
20170;SDS011;10245;51.344;6.620;2024-03-23T02:10:56;13.18;;;3.45;;
20170;SDS011;10245;51.344;6.620;2024-03-23T02:13:19;13.20;;;2.95;;
20170;SDS011;10245;51.344;6.620;2024-03-23T02:15:41;10.32;;;2.88;;
20170;SDS011;10245;51.344;6.620;2024-03-23T02:18:05;12.07;;;3.72;;
20170;SDS011;10245;51.344;6.620;2024-03-23T02:20:29;8.45;;;2.60;;
20170;SDS011;10245;51.344;6.620;2024-03-23T02:22:52;12.55;;;2.70;;
20170;SDS011;10245;51.344;6.620;2024-03-23T02:25:16;11.48;;;3.00;;
20170;SDS011;10245;51.344;6.620;2024-03-23T02:27:37;9.40;;;3.00;;
20170;SDS011;10245;51.344;6.620;2024-03-23T02:30:00;14.05;;;3.20;;
20170;SDS011;10245;51.344;6.620;2024-03-23T02:32:22;13.02;;;3.08;;
20170;SDS011;10245;51.344;6.620;2024-03-23T02:34:44;10.90;;;2.90;;
20170;SDS011;10245;51.344;6.620;2024-03-23T02:37:10;8.35;;;2.70;;
20170;SDS011;10245;51.344;6.620;2024-03-23T02:39:34;11.23;;;2.90;;
20170;SDS011;10245;51.344;6.620;2024-03-23T02:41:56;11.57;;;3.05;;
20170;SDS011;10245;51.344;6.620;2024-03-23T02:44:18;8.73;;;3.20;;
20170;SDS011;10245;51.344;6.620;2024-03-23T02:46:39;13.80;;;3.60;;
20170;SDS011;10245;51.344;6.620;2024-03-23T02:49:01;9.90;;;3.10;;
20170;SDS011;10245;51.344;6.620;2024-03-23T02:51:24;11.23;;;3.50;;
20170;SDS011;10245;51.344;6.620;2024-03-23T02:53:47;13.90;;;3.45;;
20170;SDS011;10245;51.344;6.620;2024-03-23T02:56:09;10.55;;;3.65;;
20170;SDS011;10245;51.344;6.620;2024-03-23T02:58:36;15.68;;;3.60;;
20170;SDS011;10245;51.344;6.620;2024-03-23T03:00:57;10.38;;;3.53;;
20170;SDS011;10245;51.344;6.620;2024-03-23T03:03:19;9.00;;;3.38;;
20170;SDS011;10245;51.344;6.620;2024-03-23T03:05:40;21.52;;;3.50;;
20170;SDS011;10245;51.344;6.620;2024-03-23T03:08:03;13.60;;;3.58;;
20170;SDS011;10245;51.344;6.620;2024-03-23T03:10:25;7.68;;;3.10;;
20170;SDS011;10245;51.344;6.620;2024-03-23T03:12:49;14.40;;;3.40;;
20170;SDS011;10245;51.344;6.620;2024-03-23T03:15:10;12.90;;;4.30;;
20170;SDS011;10245;51.344;6.620;2024-03-23T03:17:33;8.77;;;3.13;;
20170;SDS011;10245;51.344;6.620;2024-03-23T03:19:54;13.48;;;3.92;;
20170;SDS011;10245;51.344;6.620;2024-03-23T03:22:17;10.63;;;3.67;;
20170;SDS011;10245;51.344;6.620;2024-03-23T03:24:38;15.18;;;3.75;;
20170;SDS011;10245;51.344;6.620;2024-03-23T03:27:00;12.27;;;4.28;;
20170;SDS011;10245;51.344;6.620;2024-03-23T03:29:25;14.30;;;3.63;;
20170;SDS011;10245;51.344;6.620;2024-03-23T03:31:55;11.75;;;2.97;;
20170;SDS011;10245;51.344;6.620;2024-03-23T03:34:16;10.15;;;3.65;;
20170;SDS011;10245;51.344;6.620;2024-03-23T03:36:39;16.25;;;3.83;;
20170;SDS011;10245;51.344;6.620;2024-03-23T03:39:01;10.95;;;3.53;;
20170;SDS011;10245;51.344;6.620;2024-03-23T03:41:24;16.15;;;4.22;;
20170;SDS011;10245;51.344;6.620;2024-03-23T03:43:45;14.85;;;3.67;;
20170;SDS011;10245;51.344;6.620;2024-03-23T03:46:09;14.30;;;3.80;;
20170;SDS011;10245;51.344;6.620;2024-03-23T03:48:32;10.23;;;3.55;;
20170;SDS011;10245;51.344;6.620;2024-03-23T03:50:54;12.82;;;4.00;;
20170;SDS011;10245;51.344;6.620;2024-03-23T03:53:15;16.48;;;4.35;;
20170;SDS011;10245;51.344;6.620;2024-03-23T03:55:38;15.70;;;4.70;;
20170;SDS011;10245;51.344;6.620;2024-03-23T03:57:59;11.52;;;4.10;;
20170;SDS011;10245;51.344;6.620;2024-03-23T04:00:22;16.40;;;3.97;;
20170;SDS011;10245;51.344;6.620;2024-03-23T04:02:45;10.95;;;3.28;;
20170;SDS011;10245;51.344;6.620;2024-03-23T04:05:07;8.75;;;3.42;;
20170;SDS011;10245;51.344;6.620;2024-03-23T04:07:29;8.98;;;3.92;;
20170;SDS011;10245;51.344;6.620;2024-03-23T04:09:51;14.20;;;3.72;;
20170;SDS011;10245;51.344;6.620;2024-03-23T04:12:13;12.77;;;4.40;;
20170;SDS011;10245;51.344;6.620;2024-03-23T04:14:35;15.85;;;4.05;;
20170;SDS011;10245;51.344;6.620;2024-03-23T04:16:57;13.27;;;4.00;;
20170;SDS011;10245;51.344;6.620;2024-03-23T04:19:20;18.33;;;4.50;;
20170;SDS011;10245;51.344;6.620;2024-03-23T04:21:43;12.85;;;4.03;;
20170;SDS011;10245;51.344;6.620;2024-03-23T04:24:06;19.42;;;4.95;;
20170;SDS011;10245;51.344;6.620;2024-03-23T04:26:27;13.85;;;4.88;;
20170;SDS011;10245;51.344;6.620;2024-03-23T04:28:49;14.05;;;4.90;;
20170;SDS011;10245;51.344;6.620;2024-03-23T04:31:11;14.32;;;4.90;;
20170;SDS011;10245;51.344;6.620;2024-03-23T04:33:33;20.25;;;5.63;;
20170;SDS011;10245;51.344;6.620;2024-03-23T04:35:56;12.30;;;4.80;;
20170;SDS011;10245;51.344;6.620;2024-03-23T04:38:18;16.38;;;4.43;;
20170;SDS011;10245;51.344;6.620;2024-03-23T04:40:40;21.02;;;5.32;;
20170;SDS011;10245;51.344;6.620;2024-03-23T04:43:03;19.23;;;5.60;;
20170;SDS011;10245;51.344;6.620;2024-03-23T04:45:26;23.50;;;6.72;;
20170;SDS011;10245;51.344;6.620;2024-03-23T04:47:49;17.67;;;6.07;;
20170;SDS011;10245;51.344;6.620;2024-03-23T04:50:11;17.25;;;6.60;;
20170;SDS011;10245;51.344;6.620;2024-03-23T04:52:34;24.42;;;7.15;;
20170;SDS011;10245;51.344;6.620;2024-03-23T04:54:56;25.02;;;8.00;;
20170;SDS011;10245;51.344;6.620;2024-03-23T04:57:18;19.30;;;7.88;;
20170;SDS011;10245;51.344;6.620;2024-03-23T04:59:43;19.95;;;7.90;;
20170;SDS011;10245;51.344;6.620;2024-03-23T05:02:05;21.00;;;7.40;;
20170;SDS011;10245;51.344;6.620;2024-03-23T05:04:27;21.65;;;7.75;;
20170;SDS011;10245;51.344;6.620;2024-03-23T05:06:49;24.33;;;8.57;;
20170;SDS011;10245;51.344;6.620;2024-03-23T05:09:12;23.10;;;8.65;;
20170;SDS011;10245;51.344;6.620;2024-03-23T05:11:34;19.35;;;7.32;;
20170;SDS011;10245;51.344;6.620;2024-03-23T05:13:55;23.20;;;7.85;;
20170;SDS011;10245;51.344;6.620;2024-03-23T05:16:18;18.60;;;7.50;;
20170;SDS011;10245;51.344;6.620;2024-03-23T05:18:39;21.10;;;7.45;;
20170;SDS011;10245;51.344;6.620;2024-03-23T05:21:01;23.65;;;7.95;;
20170;SDS011;10245;51.344;6.620;2024-03-23T05:23:23;22.77;;;8.00;;
20170;SDS011;10245;51.344;6.620;2024-03-23T05:25:47;22.20;;;8.02;;
20170;SDS011;10245;51.344;6.620;2024-03-23T05:28:08;21.30;;;7.57;;
20170;SDS011;10245;51.344;6.620;2024-03-23T05:30:30;20.48;;;8.48;;
20170;SDS011;10245;51.344;6.620;2024-03-23T05:32:52;21.17;;;8.00;;
20170;SDS011;10245;51.344;6.620;2024-03-23T05:35:15;22.95;;;9.38;;
20170;SDS011;10245;51.344;6.620;2024-03-23T05:37:36;20.00;;;9.23;;
20170;SDS011;10245;51.344;6.620;2024-03-23T05:40:00;21.13;;;10.02;;
20170;SDS011;10245;51.344;6.620;2024-03-23T05:42:23;27.00;;;10.95;;
20170;SDS011;10245;51.344;6.620;2024-03-23T05:44:47;23.25;;;9.98;;
20170;SDS011;10245;51.344;6.620;2024-03-23T05:47:09;23.98;;;10.85;;
20170;SDS011;10245;51.344;6.620;2024-03-23T05:49:34;23.88;;;11.13;;
20170;SDS011;10245;51.344;6.620;2024-03-23T05:51:56;26.90;;;12.55;;
20170;SDS011;10245;51.344;6.620;2024-03-23T05:54:18;28.20;;;12.07;;
20170;SDS011;10245;51.344;6.620;2024-03-23T05:56:40;27.88;;;13.02;;
20170;SDS011;10245;51.344;6.620;2024-03-23T05:59:04;26.13;;;13.02;;
20170;SDS011;10245;51.344;6.620;2024-03-23T06:01:25;29.05;;;13.80;;
20170;SDS011;10245;51.344;6.620;2024-03-23T06:03:49;31.13;;;14.77;;
20170;SDS011;10245;51.344;6.620;2024-03-23T06:06:10;29.98;;;13.73;;
20170;SDS011;10245;51.344;6.620;2024-03-23T06:08:33;30.92;;;14.77;;
20170;SDS011;10245;51.344;6.620;2024-03-23T06:10:56;27.30;;;13.60;;
20170;SDS011;10245;51.344;6.620;2024-03-23T06:13:18;31.33;;;13.98;;
20170;SDS011;10245;51.344;6.620;2024-03-23T06:15:43;35.83;;;13.32;;
20170;SDS011;10245;51.344;6.620;2024-03-23T06:18:07;35.50;;;14.20;;
20170;SDS011;10245;51.344;6.620;2024-03-23T06:20:28;33.15;;;13.85;;
20170;SDS011;10245;51.344;6.620;2024-03-23T06:22:50;29.25;;;12.52;;
20170;SDS011;10245;51.344;6.620;2024-03-23T06:25:12;34.47;;;14.32;;
20170;SDS011;10245;51.344;6.620;2024-03-23T06:27:34;30.50;;;13.07;;
20170;SDS011;10245;51.344;6.620;2024-03-23T06:29:55;32.17;;;12.93;;
20170;SDS011;10245;51.344;6.620;2024-03-23T06:32:19;27.45;;;12.73;;
20170;SDS011;10245;51.344;6.620;2024-03-23T06:34:41;31.05;;;12.63;;
20170;SDS011;10245;51.344;6.620;2024-03-23T06:37:03;32.05;;;12.48;;
20170;SDS011;10245;51.344;6.620;2024-03-23T06:39:26;27.90;;;12.43;;
20170;SDS011;10245;51.344;6.620;2024-03-23T06:41:51;28.05;;;11.60;;
20170;SDS011;10245;51.344;6.620;2024-03-23T06:44:14;29.23;;;11.43;;
20170;SDS011;10245;51.344;6.620;2024-03-23T06:46:37;30.58;;;11.98;;
20170;SDS011;10245;51.344;6.620;2024-03-23T06:49:00;27.45;;;10.88;;
20170;SDS011;10245;51.344;6.620;2024-03-23T06:51:23;21.98;;;11.43;;
20170;SDS011;10245;51.344;6.620;2024-03-23T06:53:45;24.90;;;11.32;;
20170;SDS011;10245;51.344;6.620;2024-03-23T06:56:07;27.67;;;11.93;;
20170;SDS011;10245;51.344;6.620;2024-03-23T06:58:29;29.70;;;11.48;;
20170;SDS011;10245;51.344;6.620;2024-03-23T07:00:51;24.95;;;11.02;;
20170;SDS011;10245;51.344;6.620;2024-03-23T07:03:13;25.50;;;10.63;;
20170;SDS011;10245;51.344;6.620;2024-03-23T07:05:38;29.20;;;11.38;;
20170;SDS011;10245;51.344;6.620;2024-03-23T07:07:59;26.08;;;10.13;;
20170;SDS011;10245;51.344;6.620;2024-03-23T07:10:21;22.77;;;10.45;;
20170;SDS011;10245;51.344;6.620;2024-03-23T07:12:43;23.98;;;10.00;;
20170;SDS011;10245;51.344;6.620;2024-03-23T07:15:05;26.63;;;9.52;;
20170;SDS011;10245;51.344;6.620;2024-03-23T07:17:28;24.80;;;9.65;;
20170;SDS011;10245;51.344;6.620;2024-03-23T07:19:55;25.60;;;9.93;;
20170;SDS011;10245;51.344;6.620;2024-03-23T07:22:18;23.90;;;9.60;;
20170;SDS011;10245;51.344;6.620;2024-03-23T07:24:41;17.33;;;8.20;;
20170;SDS011;10245;51.344;6.620;2024-03-23T07:27:04;23.98;;;9.10;;
20170;SDS011;10245;51.344;6.620;2024-03-23T07:29:31;22.73;;;9.30;;
20170;SDS011;10245;51.344;6.620;2024-03-23T07:31:53;20.83;;;7.80;;
20170;SDS011;10245;51.344;6.620;2024-03-23T07:34:15;27.52;;;8.82;;
20170;SDS011;10245;51.344;6.620;2024-03-23T07:36:37;25.73;;;8.40;;
20170;SDS011;10245;51.344;6.620;2024-03-23T07:39:00;17.85;;;7.78;;
20170;SDS011;10245;51.344;6.620;2024-03-23T07:41:24;22.67;;;7.70;;
20170;SDS011;10245;51.344;6.620;2024-03-23T07:43:45;18.77;;;8.20;;
20170;SDS011;10245;51.344;6.620;2024-03-23T07:46:08;22.08;;;8.65;;
20170;SDS011;10245;51.344;6.620;2024-03-23T07:48:30;21.55;;;7.53;;
20170;SDS011;10245;51.344;6.620;2024-03-23T07:50:57;19.90;;;7.80;;
20170;SDS011;10245;51.344;6.620;2024-03-23T07:53:20;22.48;;;7.93;;
20170;SDS011;10245;51.344;6.620;2024-03-23T07:55:47;18.80;;;7.72;;
20170;SDS011;10245;51.344;6.620;2024-03-23T07:58:15;22.42;;;8.55;;
20170;SDS011;10245;51.344;6.620;2024-03-23T08:00:37;19.30;;;7.72;;
20170;SDS011;10245;51.344;6.620;2024-03-23T08:02:59;13.63;;;7.22;;
20170;SDS011;10245;51.344;6.620;2024-03-23T08:05:21;22.40;;;7.75;;
20170;SDS011;10245;51.344;6.620;2024-03-23T08:07:42;25.42;;;8.13;;
20170;SDS011;10245;51.344;6.620;2024-03-23T08:10:05;19.90;;;7.75;;
20170;SDS011;10245;51.344;6.620;2024-03-23T08:12:28;23.77;;;8.00;;
20170;SDS011;10245;51.344;6.620;2024-03-23T08:14:51;19.42;;;7.18;;
20170;SDS011;10245;51.344;6.620;2024-03-23T08:17:13;18.90;;;7.30;;
20170;SDS011;10245;51.344;6.620;2024-03-23T08:19:35;19.77;;;7.47;;
20170;SDS011;10245;51.344;6.620;2024-03-23T08:21:56;12.88;;;4.43;;
20170;SDS011;10245;51.344;6.620;2024-03-23T08:24:19;9.80;;;4.20;;
20170;SDS011;10245;51.344;6.620;2024-03-23T08:26:40;8.95;;;2.85;;
20170;SDS011;10245;51.344;6.620;2024-03-23T08:29:04;6.05;;;2.70;;
20170;SDS011;10245;51.344;6.620;2024-03-23T08:31:26;4.97;;;1.77;;
20170;SDS011;10245;51.344;6.620;2024-03-23T08:33:48;6.78;;;2.30;;
20170;SDS011;10245;51.344;6.620;2024-03-23T08:36:10;6.40;;;1.92;;
20170;SDS011;10245;51.344;6.620;2024-03-23T08:38:34;5.53;;;1.92;;
20170;SDS011;10245;51.344;6.620;2024-03-23T08:40:56;3.72;;;2.03;;
20170;SDS011;10245;51.344;6.620;2024-03-23T08:43:18;5.57;;;1.80;;
20170;SDS011;10245;51.344;6.620;2024-03-23T08:45:42;3.38;;;2.17;;
20170;SDS011;10245;51.344;6.620;2024-03-23T08:48:04;5.15;;;2.20;;
20170;SDS011;10245;51.344;6.620;2024-03-23T08:50:26;5.22;;;2.40;;
20170;SDS011;10245;51.344;6.620;2024-03-23T08:52:50;7.47;;;2.95;;
20170;SDS011;10245;51.344;6.620;2024-03-23T08:55:11;6.20;;;3.47;;
20170;SDS011;10245;51.344;6.620;2024-03-23T08:57:34;7.18;;;3.50;;
20170;SDS011;10245;51.344;6.620;2024-03-23T08:59:56;8.00;;;4.40;;
20170;SDS011;10245;51.344;6.620;2024-03-23T09:02:20;10.35;;;5.47;;
20170;SDS011;10245;51.344;6.620;2024-03-23T09:04:43;13.88;;;6.80;;
20170;SDS011;10245;51.344;6.620;2024-03-23T09:07:06;14.45;;;6.40;;
20170;SDS011;10245;51.344;6.620;2024-03-23T09:09:27;12.23;;;6.63;;
20170;SDS011;10245;51.344;6.620;2024-03-23T09:11:50;11.98;;;6.97;;
20170;SDS011;10245;51.344;6.620;2024-03-23T09:14:11;17.15;;;7.68;;
20170;SDS011;10245;51.344;6.620;2024-03-23T09:16:34;19.70;;;7.20;;
20170;SDS011;10245;51.344;6.620;2024-03-23T09:18:56;15.10;;;7.03;;
20170;SDS011;10245;51.344;6.620;2024-03-23T09:21:19;17.30;;;6.78;;
20170;SDS011;10245;51.344;6.620;2024-03-23T09:23:40;21.05;;;6.53;;
20170;SDS011;10245;51.344;6.620;2024-03-23T09:26:04;13.15;;;5.55;;
20170;SDS011;10245;51.344;6.620;2024-03-23T09:28:27;14.13;;;5.50;;
20170;SDS011;10245;51.344;6.620;2024-03-23T09:30:50;16.88;;;5.22;;
20170;SDS011;10245;51.344;6.620;2024-03-23T09:33:12;14.48;;;4.18;;
20170;SDS011;10245;51.344;6.620;2024-03-23T09:35:37;14.10;;;4.28;;
20170;SDS011;10245;51.344;6.620;2024-03-23T09:37:59;12.40;;;3.83;;
20170;SDS011;10245;51.344;6.620;2024-03-23T09:40:21;12.75;;;4.18;;
20170;SDS011;10245;51.344;6.620;2024-03-23T09:42:43;16.15;;;4.20;;
20170;SDS011;10245;51.344;6.620;2024-03-23T09:45:17;15.45;;;4.10;;
20170;SDS011;10245;51.344;6.620;2024-03-23T09:47:42;17.20;;;4.28;;
20170;SDS011;10245;51.344;6.620;2024-03-23T09:50:06;14.27;;;4.00;;
20170;SDS011;10245;51.344;6.620;2024-03-23T09:52:31;11.77;;;3.47;;
20170;SDS011;10245;51.344;6.620;2024-03-23T09:54:53;13.52;;;3.78;;
20170;SDS011;10245;51.344;6.620;2024-03-23T09:57:14;9.38;;;3.65;;
20170;SDS011;10245;51.344;6.620;2024-03-23T09:59:36;8.85;;;3.50;;
20170;SDS011;10245;51.344;6.620;2024-03-23T10:01:58;16.50;;;4.20;;
20170;SDS011;10245;51.344;6.620;2024-03-23T10:04:37;11.30;;;3.15;;
20170;SDS011;10245;51.344;6.620;2024-03-23T10:07:03;10.05;;;3.28;;
20170;SDS011;10245;51.344;6.620;2024-03-23T10:09:35;14.32;;;3.47;;
20170;SDS011;10245;51.344;6.620;2024-03-23T10:12:01;11.55;;;3.45;;
20170;SDS011;10245;51.344;6.620;2024-03-23T10:14:31;10.32;;;3.40;;
20170;SDS011;10245;51.344;6.620;2024-03-23T10:16:52;13.00;;;3.10;;
20170;SDS011;10245;51.344;6.620;2024-03-23T10:19:16;11.93;;;4.00;;
20170;SDS011;10245;51.344;6.620;2024-03-23T10:21:52;7.72;;;3.00;;
20170;SDS011;10245;51.344;6.620;2024-03-23T10:24:14;8.70;;;3.00;;
20170;SDS011;10245;51.344;6.620;2024-03-23T10:26:37;7.80;;;2.35;;
20170;SDS011;10245;51.344;6.620;2024-03-23T10:29:00;5.82;;;2.00;;
20170;SDS011;10245;51.344;6.620;2024-03-23T10:31:23;8.45;;;1.52;;
20170;SDS011;10245;51.344;6.620;2024-03-23T10:33:46;5.65;;;1.77;;
20170;SDS011;10245;51.344;6.620;2024-03-23T10:36:07;3.65;;;1.65;;
20170;SDS011;10245;51.344;6.620;2024-03-23T10:38:29;8.57;;;2.33;;
20170;SDS011;10245;51.344;6.620;2024-03-23T10:40:52;4.78;;;1.98;;
20170;SDS011;10245;51.344;6.620;2024-03-23T10:43:17;4.88;;;1.85;;
20170;SDS011;10245;51.344;6.620;2024-03-23T10:45:39;3.65;;;1.70;;
20170;SDS011;10245;51.344;6.620;2024-03-23T10:48:03;4.03;;;1.40;;
20170;SDS011;10245;51.344;6.620;2024-03-23T10:50:25;1.75;;;1.02;;
20170;SDS011;10245;51.344;6.620;2024-03-23T10:52:48;3.67;;;0.90;;
20170;SDS011;10245;51.344;6.620;2024-03-23T10:55:10;3.25;;;1.10;;
20170;SDS011;10245;51.344;6.620;2024-03-23T10:57:34;2.83;;;1.10;;
20170;SDS011;10245;51.344;6.620;2024-03-23T11:00:03;2.90;;;0.90;;
20170;SDS011;10245;51.344;6.620;2024-03-23T11:02:27;1.83;;;1.10;;
20170;SDS011;10245;51.344;6.620;2024-03-23T11:04:51;3.97;;;1.10;;
20170;SDS011;10245;51.344;6.620;2024-03-23T11:07:29;3.80;;;1.50;;
20170;SDS011;10245;51.344;6.620;2024-03-23T11:09:52;4.03;;;1.58;;
20170;SDS011;10245;51.344;6.620;2024-03-23T11:12:24;7.38;;;1.67;;
20170;SDS011;10245;51.344;6.620;2024-03-23T11:14:48;6.93;;;2.00;;
20170;SDS011;10245;51.344;6.620;2024-03-23T11:17:13;4.82;;;1.95;;
20170;SDS011;10245;51.344;6.620;2024-03-23T11:19:39;6.97;;;1.98;;
20170;SDS011;10245;51.344;6.620;2024-03-23T11:22:02;4.88;;;2.17;;
20170;SDS011;10245;51.344;6.620;2024-03-23T11:24:24;4.68;;;2.30;;
20170;SDS011;10245;51.344;6.620;2024-03-23T11:26:48;4.97;;;2.10;;
20170;SDS011;10245;51.344;6.620;2024-03-23T11:29:10;3.72;;;2.00;;
20170;SDS011;10245;51.344;6.620;2024-03-23T11:31:33;8.65;;;2.28;;
20170;SDS011;10245;51.344;6.620;2024-03-23T11:34:03;9.32;;;2.70;;
20170;SDS011;10245;51.344;6.620;2024-03-23T11:36:26;8.65;;;2.25;;
20170;SDS011;10245;51.344;6.620;2024-03-23T11:38:48;3.38;;;1.40;;
20170;SDS011;10245;51.344;6.620;2024-03-23T11:41:10;3.30;;;1.45;;
20170;SDS011;10245;51.344;6.620;2024-03-23T11:43:31;2.75;;;1.30;;
20170;SDS011;10245;51.344;6.620;2024-03-23T11:45:54;5.15;;;1.70;;
20170;SDS011;10245;51.344;6.620;2024-03-23T11:48:16;8.45;;;1.98;;
20170;SDS011;10245;51.344;6.620;2024-03-23T11:50:43;4.60;;;2.05;;
20170;SDS011;10245;51.344;6.620;2024-03-23T11:53:07;4.22;;;1.70;;
20170;SDS011;10245;51.344;6.620;2024-03-23T11:55:33;5.05;;;1.70;;
20170;SDS011;10245;51.344;6.620;2024-03-23T11:58:01;5.03;;;1.77;;
20170;SDS011;10245;51.344;6.620;2024-03-23T12:00:24;7.93;;;2.15;;
20170;SDS011;10245;51.344;6.620;2024-03-23T12:02:47;8.45;;;2.40;;
20170;SDS011;10245;51.344;6.620;2024-03-23T12:05:14;4.05;;;2.15;;
20170;SDS011;10245;51.344;6.620;2024-03-23T12:07:37;3.83;;;2.00;;
20170;SDS011;10245;51.344;6.620;2024-03-23T12:10:03;7.03;;;1.90;;
20170;SDS011;10245;51.344;6.620;2024-03-23T12:12:26;6.40;;;1.95;;
20170;SDS011;10245;51.344;6.620;2024-03-23T12:15:00;7.25;;;2.25;;
20170;SDS011;10245;51.344;6.620;2024-03-23T12:17:23;10.50;;;2.67;;
20170;SDS011;10245;51.344;6.620;2024-03-23T12:19:46;7.05;;;2.30;;
20170;SDS011;10245;51.344;6.620;2024-03-23T12:22:08;7.35;;;2.58;;
20170;SDS011;10245;51.344;6.620;2024-03-23T12:24:32;6.40;;;2.53;;
20170;SDS011;10245;51.344;6.620;2024-03-23T12:26:54;7.20;;;2.95;;
20170;SDS011;10245;51.344;6.620;2024-03-23T12:29:17;9.88;;;2.83;;
20170;SDS011;10245;51.344;6.620;2024-03-23T12:31:39;9.25;;;3.17;;
20170;SDS011;10245;51.344;6.620;2024-03-23T12:34:01;7.30;;;2.80;;
20170;SDS011;10245;51.344;6.620;2024-03-23T12:36:23;5.38;;;2.13;;
20170;SDS011;10245;51.344;6.620;2024-03-23T12:38:45;6.65;;;1.67;;
20170;SDS011;10245;51.344;6.620;2024-03-23T12:41:08;5.30;;;2.30;;
20170;SDS011;10245;51.344;6.620;2024-03-23T12:43:31;5.13;;;1.52;;
20170;SDS011;10245;51.344;6.620;2024-03-23T12:45:53;4.65;;;1.90;;
20170;SDS011;10245;51.344;6.620;2024-03-23T12:48:16;6.78;;;2.25;;
20170;SDS011;10245;51.344;6.620;2024-03-23T12:50:37;3.88;;;1.73;;
20170;SDS011;10245;51.344;6.620;2024-03-23T12:52:59;5.25;;;1.48;;
20170;SDS011;10245;51.344;6.620;2024-03-23T12:55:21;9.23;;;2.10;;
20170;SDS011;10245;51.344;6.620;2024-03-23T12:57:44;8.35;;;2.13;;
20170;SDS011;10245;51.344;6.620;2024-03-23T13:00:06;7.03;;;1.90;;
20170;SDS011;10245;51.344;6.620;2024-03-23T13:02:32;6.95;;;2.05;;
20170;SDS011;10245;51.344;6.620;2024-03-23T13:04:55;3.85;;;1.55;;
20170;SDS011;10245;51.344;6.620;2024-03-23T13:07:18;5.90;;;1.77;;
20170;SDS011;10245;51.344;6.620;2024-03-23T13:09:41;8.50;;;1.58;;
20170;SDS011;10245;51.344;6.620;2024-03-23T13:12:03;5.65;;;1.63;;
20170;SDS011;10245;51.344;6.620;2024-03-23T13:14:27;3.75;;;1.58;;
20170;SDS011;10245;51.344;6.620;2024-03-23T13:16:49;5.47;;;1.58;;
20170;SDS011;10245;51.344;6.620;2024-03-23T13:19:10;3.67;;;1.45;;
20170;SDS011;10245;51.344;6.620;2024-03-23T13:21:33;4.97;;;1.77;;
20170;SDS011;10245;51.344;6.620;2024-03-23T13:23:54;6.32;;;1.75;;
20170;SDS011;10245;51.344;6.620;2024-03-23T13:26:17;6.40;;;1.10;;
20170;SDS011;10245;51.344;6.620;2024-03-23T13:28:38;4.03;;;1.10;;
20170;SDS011;10245;51.344;6.620;2024-03-23T13:31:02;3.20;;;1.10;;
20170;SDS011;10245;51.344;6.620;2024-03-23T13:33:24;2.50;;;1.20;;
20170;SDS011;10245;51.344;6.620;2024-03-23T13:35:49;3.72;;;1.27;;
20170;SDS011;10245;51.344;6.620;2024-03-23T13:38:11;2.55;;;1.20;;
20170;SDS011;10245;51.344;6.620;2024-03-23T13:40:33;4.75;;;1.33;;
20170;SDS011;10245;51.344;6.620;2024-03-23T13:42:55;5.88;;;1.52;;
20170;SDS011;10245;51.344;6.620;2024-03-23T13:45:17;4.20;;;1.40;;
20170;SDS011;10245;51.344;6.620;2024-03-23T13:47:39;3.75;;;1.20;;
20170;SDS011;10245;51.344;6.620;2024-03-23T13:50:02;7.63;;;1.25;;
20170;SDS011;10245;51.344;6.620;2024-03-23T13:52:24;6.45;;;1.50;;
20170;SDS011;10245;51.344;6.620;2024-03-23T13:54:47;5.07;;;1.42;;
20170;SDS011;10245;51.344;6.620;2024-03-23T13:57:09;8.63;;;1.60;;
20170;SDS011;10245;51.344;6.620;2024-03-23T13:59:32;7.85;;;1.90;;
20170;SDS011;10245;51.344;6.620;2024-03-23T14:01:53;5.60;;;1.75;;
20170;SDS011;10245;51.344;6.620;2024-03-23T14:04:17;5.80;;;1.45;;
20170;SDS011;10245;51.344;6.620;2024-03-23T14:06:40;8.00;;;2.05;;
20170;SDS011;10245;51.344;6.620;2024-03-23T14:09:03;3.65;;;1.40;;
20170;SDS011;10245;51.344;6.620;2024-03-23T14:11:24;6.30;;;1.70;;
20170;SDS011;10245;51.344;6.620;2024-03-23T14:13:48;8.50;;;1.95;;
20170;SDS011;10245;51.344;6.620;2024-03-23T14:16:10;6.18;;;1.92;;
20170;SDS011;10245;51.344;6.620;2024-03-23T14:18:33;6.75;;;1.75;;
20170;SDS011;10245;51.344;6.620;2024-03-23T14:20:57;2.90;;;1.65;;
20170;SDS011;10245;51.344;6.620;2024-03-23T14:23:21;6.18;;;1.85;;
20170;SDS011;10245;51.344;6.620;2024-03-23T14:25:42;6.75;;;1.52;;
20170;SDS011;10245;51.344;6.620;2024-03-23T14:28:05;5.28;;;2.03;;
20170;SDS011;10245;51.344;6.620;2024-03-23T14:30:28;5.03;;;1.83;;
20170;SDS011;10245;51.344;6.620;2024-03-23T14:32:52;8.05;;;1.80;;
20170;SDS011;10245;51.344;6.620;2024-03-23T14:35:14;3.92;;;1.58;;
20170;SDS011;10245;51.344;6.620;2024-03-23T14:37:38;7.82;;;2.03;;
20170;SDS011;10245;51.344;6.620;2024-03-23T14:40:00;4.57;;;1.65;;
20170;SDS011;10245;51.344;6.620;2024-03-23T14:42:23;7.30;;;1.65;;
20170;SDS011;10245;51.344;6.620;2024-03-23T14:44:45;7.45;;;1.75;;
20170;SDS011;10245;51.344;6.620;2024-03-23T14:47:07;4.50;;;1.63;;
20170;SDS011;10245;51.344;6.620;2024-03-23T14:49:29;2.00;;;1.20;;
20170;SDS011;10245;51.344;6.620;2024-03-23T14:51:52;3.92;;;1.40;;
20170;SDS011;10245;51.344;6.620;2024-03-23T14:54:15;4.03;;;1.60;;
20170;SDS011;10245;51.344;6.620;2024-03-23T14:56:37;3.83;;;1.50;;
20170;SDS011;10245;51.344;6.620;2024-03-23T14:58:58;5.63;;;1.80;;
20170;SDS011;10245;51.344;6.620;2024-03-23T15:01:21;4.93;;;1.73;;
20170;SDS011;10245;51.344;6.620;2024-03-23T15:03:42;6.90;;;1.70;;
20170;SDS011;10245;51.344;6.620;2024-03-23T15:06:05;6.78;;;1.75;;